sensor_id;sensor_type;location;lat;lon;timestamp;temperature;humidity
6788;DHT22;3431;47.966;10.268;2023-04-21T00:00:18;4.80;99.90
6788;DHT22;3431;47.966;10.268;2023-04-21T00:00:40;5.00;99.90
6788;DHT22;3431;47.966;10.268;2023-04-21T00:01:01;5.00;99.90
6788;DHT22;3431;47.966;10.268;2023-04-21T00:01:24;5.00;99.90
6788;DHT22;3431;47.966;10.268;2023-04-21T00:01:46;5.00;99.90
6788;DHT22;3431;47.966;10.268;2023-04-21T00:02:07;5.10;99.90
6788;DHT22;3431;47.966;10.268;2023-04-21T00:02:29;5.10;99.90
6788;DHT22;3431;47.966;10.268;2023-04-21T00:02:51;5.10;99.90
6788;DHT22;3431;47.966;10.268;2023-04-21T00:03:13;5.10;99.90
6788;DHT22;3431;47.966;10.268;2023-04-21T00:03:35;5.00;99.90
6788;DHT22;3431;47.966;10.268;2023-04-21T00:03:59;5.10;99.90
6788;DHT22;3431;47.966;10.268;2023-04-21T00:04:21;5.10;99.90
6788;DHT22;3431;47.966;10.268;2023-04-21T00:04:43;5.10;99.90
6788;DHT22;3431;47.966;10.268;2023-04-21T00:05:06;5.10;99.90
6788;DHT22;3431;47.966;10.268;2023-04-21T00:05:29;5.10;99.90
6788;DHT22;3431;47.966;10.268;2023-04-21T00:05:51;5.10;99.90
6788;DHT22;3431;47.966;10.268;2023-04-21T00:06:12;5.10;99.90
6788;DHT22;3431;47.966;10.268;2023-04-21T00:06:34;5.10;99.90
6788;DHT22;3431;47.966;10.268;2023-04-21T00:06:57;5.10;99.90
6788;DHT22;3431;47.966;10.268;2023-04-21T00:07:21;5.10;99.90
6788;DHT22;3431;47.966;10.268;2023-04-21T00:07:43;5.20;99.90
6788;DHT22;3431;47.966;10.268;2023-04-21T00:08:04;5.20;99.90
6788;DHT22;3431;47.966;10.268;2023-04-21T00:08:26;5.20;99.90
6788;DHT22;3431;47.966;10.268;2023-04-21T00:08:49;5.20;99.90
6788;DHT22;3431;47.966;10.268;2023-04-21T00:09:10;5.20;99.90
6788;DHT22;3431;47.966;10.268;2023-04-21T00:09:32;5.20;99.90
6788;DHT22;3431;47.966;10.268;2023-04-21T00:09:54;5.20;99.90
6788;DHT22;3431;47.966;10.268;2023-04-21T00:10:16;5.20;99.90
6788;DHT22;3431;47.966;10.268;2023-04-21T00:10:38;5.20;99.90
6788;DHT22;3431;47.966;10.268;2023-04-21T00:10:59;5.20;99.90
6788;DHT22;3431;47.966;10.268;2023-04-21T00:11:21;5.20;99.90
6788;DHT22;3431;47.966;10.268;2023-04-21T00:11:44;5.20;99.90
6788;DHT22;3431;47.966;10.268;2023-04-21T00:12:05;5.20;99.90
6788;DHT22;3431;47.966;10.268;2023-04-21T00:12:27;5.20;99.90
6788;DHT22;3431;47.966;10.268;2023-04-21T00:12:48;5.30;99.90
6788;DHT22;3431;47.966;10.268;2023-04-21T00:13:11;5.30;99.90
6788;DHT22;3431;47.966;10.268;2023-04-21T00:13:33;5.30;99.90
6788;DHT22;3431;47.966;10.268;2023-04-21T00:13:54;5.30;99.90
6788;DHT22;3431;47.966;10.268;2023-04-21T00:14:16;5.30;99.90
6788;DHT22;3431;47.966;10.268;2023-04-21T00:14:38;5.30;99.90
6788;DHT22;3431;47.966;10.268;2023-04-21T00:15:01;5.40;99.90
6788;DHT22;3431;47.966;10.268;2023-04-21T00:15:23;5.30;99.90
6788;DHT22;3431;47.966;10.268;2023-04-21T00:15:44;5.40;99.90
6788;DHT22;3431;47.966;10.268;2023-04-21T00:16:06;5.40;99.90
6788;DHT22;3431;47.966;10.268;2023-04-21T00:16:29;5.40;99.90
6788;DHT22;3431;47.966;10.268;2023-04-21T00:16:50;5.40;99.90
6788;DHT22;3431;47.966;10.268;2023-04-21T00:17:12;5.40;99.90
6788;DHT22;3431;47.966;10.268;2023-04-21T00:17:34;5.40;99.90
6788;DHT22;3431;47.966;10.268;2023-04-21T00:17:56;5.40;99.90
6788;DHT22;3431;47.966;10.268;2023-04-21T00:18:19;5.40;99.90
6788;DHT22;3431;47.966;10.268;2023-04-21T00:18:40;5.40;99.90
6788;DHT22;3431;47.966;10.268;2023-04-21T00:19:03;5.40;99.90
6788;DHT22;3431;47.966;10.268;2023-04-21T00:19:27;5.40;99.90
6788;DHT22;3431;47.966;10.268;2023-04-21T00:20:12;5.40;99.90
6788;DHT22;3431;47.966;10.268;2023-04-21T00:20:34;5.40;99.90
6788;DHT22;3431;47.966;10.268;2023-04-21T00:20:57;5.40;99.90
6788;DHT22;3431;47.966;10.268;2023-04-21T00:21:18;5.40;99.90
6788;DHT22;3431;47.966;10.268;2023-04-21T00:21:40;5.40;99.90
6788;DHT22;3431;47.966;10.268;2023-04-21T00:22:01;5.40;99.90
6788;DHT22;3431;47.966;10.268;2023-04-21T00:22:24;5.40;99.90
6788;DHT22;3431;47.966;10.268;2023-04-21T00:22:46;5.30;99.90
6788;DHT22;3431;47.966;10.268;2023-04-21T00:23:08;5.40;99.90
6788;DHT22;3431;47.966;10.268;2023-04-21T00:23:31;5.40;99.90
6788;DHT22;3431;47.966;10.268;2023-04-21T00:23:53;5.40;99.90
6788;DHT22;3431;47.966;10.268;2023-04-21T00:24:15;5.80;99.90
6788;DHT22;3431;47.966;10.268;2023-04-21T00:24:36;5.30;99.90
6788;DHT22;3431;47.966;10.268;2023-04-21T00:24:58;5.30;99.90
6788;DHT22;3431;47.966;10.268;2023-04-21T00:25:20;5.30;99.90
6788;DHT22;3431;47.966;10.268;2023-04-21T00:25:42;5.30;99.90
6788;DHT22;3431;47.966;10.268;2023-04-21T00:26:04;5.30;99.90
6788;DHT22;3431;47.966;10.268;2023-04-21T00:26:25;5.30;99.90
6788;DHT22;3431;47.966;10.268;2023-04-21T00:26:47;5.30;99.90
6788;DHT22;3431;47.966;10.268;2023-04-21T00:27:08;5.30;99.90
6788;DHT22;3431;47.966;10.268;2023-04-21T00:27:32;5.30;99.90
6788;DHT22;3431;47.966;10.268;2023-04-21T00:27:54;5.70;99.90
6788;DHT22;3431;47.966;10.268;2023-04-21T00:28:16;5.30;99.90
6788;DHT22;3431;47.966;10.268;2023-04-21T00:28:37;5.30;99.90
6788;DHT22;3431;47.966;10.268;2023-04-21T00:29:00;5.30;99.90
6788;DHT22;3431;47.966;10.268;2023-04-21T00:29:21;5.40;99.90
6788;DHT22;3431;47.966;10.268;2023-04-21T00:29:43;5.30;99.90
6788;DHT22;3431;47.966;10.268;2023-04-21T00:30:07;5.30;99.90
6788;DHT22;3431;47.966;10.268;2023-04-21T00:30:31;5.30;99.90
6788;DHT22;3431;47.966;10.268;2023-04-21T00:30:53;5.30;99.90
6788;DHT22;3431;47.966;10.268;2023-04-21T00:31:14;5.30;99.90
6788;DHT22;3431;47.966;10.268;2023-04-21T00:31:37;5.30;99.90
6788;DHT22;3431;47.966;10.268;2023-04-21T00:31:59;5.30;99.90
6788;DHT22;3431;47.966;10.268;2023-04-21T00:32:22;5.30;99.90
6788;DHT22;3431;47.966;10.268;2023-04-21T00:32:45;5.30;99.90
6788;DHT22;3431;47.966;10.268;2023-04-21T00:33:07;5.30;99.90
6788;DHT22;3431;47.966;10.268;2023-04-21T00:33:30;5.30;99.90
6788;DHT22;3431;47.966;10.268;2023-04-21T00:33:51;5.20;99.90
6788;DHT22;3431;47.966;10.268;2023-04-21T00:34:17;5.20;99.90
6788;DHT22;3431;47.966;10.268;2023-04-21T00:34:40;5.40;99.90
6788;DHT22;3431;47.966;10.268;2023-04-21T00:35:03;5.20;99.90
6788;DHT22;3431;47.966;10.268;2023-04-21T00:35:25;5.20;99.90
6788;DHT22;3431;47.966;10.268;2023-04-21T00:35:47;5.20;99.90
6788;DHT22;3431;47.966;10.268;2023-04-21T00:36:08;5.20;99.90
6788;DHT22;3431;47.966;10.268;2023-04-21T00:36:30;5.20;99.90
6788;DHT22;3431;47.966;10.268;2023-04-21T00:36:52;5.20;99.90
6788;DHT22;3431;47.966;10.268;2023-04-21T00:37:14;5.20;99.90
6788;DHT22;3431;47.966;10.268;2023-04-21T00:37:35;5.20;99.90
6788;DHT22;3431;47.966;10.268;2023-04-21T00:37:58;5.20;99.90
6788;DHT22;3431;47.966;10.268;2023-04-21T00:38:19;5.20;99.90
6788;DHT22;3431;47.966;10.268;2023-04-21T00:38:42;5.20;99.90
6788;DHT22;3431;47.966;10.268;2023-04-21T00:39:04;5.20;99.90
6788;DHT22;3431;47.966;10.268;2023-04-21T00:39:25;5.20;99.90
6788;DHT22;3431;47.966;10.268;2023-04-21T00:39:47;5.20;99.90
6788;DHT22;3431;47.966;10.268;2023-04-21T00:40:09;5.20;99.90
6788;DHT22;3431;47.966;10.268;2023-04-21T00:40:34;5.20;99.90
6788;DHT22;3431;47.966;10.268;2023-04-21T00:40:55;5.20;99.90
6788;DHT22;3431;47.966;10.268;2023-04-21T00:41:17;5.20;99.90
6788;DHT22;3431;47.966;10.268;2023-04-21T00:41:39;5.20;99.90
6788;DHT22;3431;47.966;10.268;2023-04-21T00:42:02;5.20;99.90
6788;DHT22;3431;47.966;10.268;2023-04-21T00:42:23;5.20;99.90
6788;DHT22;3431;47.966;10.268;2023-04-21T00:42:45;5.20;99.90
6788;DHT22;3431;47.966;10.268;2023-04-21T00:43:07;5.20;99.90
6788;DHT22;3431;47.966;10.268;2023-04-21T00:43:30;5.20;99.90
6788;DHT22;3431;47.966;10.268;2023-04-21T00:44:01;5.20;99.90
6788;DHT22;3431;47.966;10.268;2023-04-21T00:44:25;5.20;99.90
6788;DHT22;3431;47.966;10.268;2023-04-21T00:44:47;5.20;99.90
6788;DHT22;3431;47.966;10.268;2023-04-21T00:45:10;5.20;99.90
6788;DHT22;3431;47.966;10.268;2023-04-21T00:45:32;5.20;99.90
6788;DHT22;3431;47.966;10.268;2023-04-21T00:45:53;5.20;99.90
6788;DHT22;3431;47.966;10.268;2023-04-21T00:46:15;5.20;99.90
6788;DHT22;3431;47.966;10.268;2023-04-21T00:46:37;5.20;99.90
6788;DHT22;3431;47.966;10.268;2023-04-21T00:46:59;5.20;99.90
6788;DHT22;3431;47.966;10.268;2023-04-21T00:47:21;5.20;99.90
6788;DHT22;3431;47.966;10.268;2023-04-21T00:47:44;5.20;99.90
6788;DHT22;3431;47.966;10.268;2023-04-21T00:48:07;5.20;99.90
6788;DHT22;3431;47.966;10.268;2023-04-21T00:48:28;5.20;99.90
6788;DHT22;3431;47.966;10.268;2023-04-21T00:48:50;5.20;99.90
6788;DHT22;3431;47.966;10.268;2023-04-21T00:49:12;5.20;99.90
6788;DHT22;3431;47.966;10.268;2023-04-21T00:49:36;5.20;99.90
6788;DHT22;3431;47.966;10.268;2023-04-21T00:49:58;5.20;99.90
6788;DHT22;3431;47.966;10.268;2023-04-21T00:50:20;5.20;99.90
6788;DHT22;3431;47.966;10.268;2023-04-21T00:50:42;5.20;99.90
6788;DHT22;3431;47.966;10.268;2023-04-21T00:51:04;5.20;99.90
6788;DHT22;3431;47.966;10.268;2023-04-21T00:51:27;5.20;99.90
6788;DHT22;3431;47.966;10.268;2023-04-21T00:51:49;5.20;99.90
6788;DHT22;3431;47.966;10.268;2023-04-21T00:52:11;5.20;99.90
6788;DHT22;3431;47.966;10.268;2023-04-21T00:52:34;5.20;99.90
6788;DHT22;3431;47.966;10.268;2023-04-21T00:52:57;5.30;99.90
6788;DHT22;3431;47.966;10.268;2023-04-21T00:53:19;5.30;99.90
6788;DHT22;3431;47.966;10.268;2023-04-21T00:53:41;5.20;99.90
6788;DHT22;3431;47.966;10.268;2023-04-21T00:54:04;5.30;99.90
6788;DHT22;3431;47.966;10.268;2023-04-21T00:54:28;5.30;99.90
6788;DHT22;3431;47.966;10.268;2023-04-21T00:54:50;5.30;99.90
6788;DHT22;3431;47.966;10.268;2023-04-21T00:55:11;5.30;99.90
6788;DHT22;3431;47.966;10.268;2023-04-21T00:55:34;5.20;99.90
6788;DHT22;3431;47.966;10.268;2023-04-21T00:55:57;5.30;99.90
6788;DHT22;3431;47.966;10.268;2023-04-21T00:56:19;5.20;99.90
6788;DHT22;3431;47.966;10.268;2023-04-21T00:56:41;5.20;99.90
6788;DHT22;3431;47.966;10.268;2023-04-21T00:57:03;5.20;99.90
6788;DHT22;3431;47.966;10.268;2023-04-21T00:57:28;5.20;99.90
6788;DHT22;3431;47.966;10.268;2023-04-21T00:57:51;5.30;99.90
6788;DHT22;3431;47.966;10.268;2023-04-21T00:58:13;5.20;99.90
6788;DHT22;3431;47.966;10.268;2023-04-21T00:58:36;5.20;99.90
6788;DHT22;3431;47.966;10.268;2023-04-21T00:59:00;5.20;99.90
6788;DHT22;3431;47.966;10.268;2023-04-21T00:59:22;5.20;99.90
6788;DHT22;3431;47.966;10.268;2023-04-21T00:59:44;5.20;99.90
6788;DHT22;3431;47.966;10.268;2023-04-21T01:00:07;5.20;99.90
6788;DHT22;3431;47.966;10.268;2023-04-21T01:00:31;5.20;99.90
6788;DHT22;3431;47.966;10.268;2023-04-21T01:00:52;5.20;99.90
6788;DHT22;3431;47.966;10.268;2023-04-21T01:01:14;5.20;99.90
6788;DHT22;3431;47.966;10.268;2023-04-21T01:01:39;5.20;99.90
6788;DHT22;3431;47.966;10.268;2023-04-21T01:02:01;5.20;99.90
6788;DHT22;3431;47.966;10.268;2023-04-21T01:02:24;5.20;99.90
6788;DHT22;3431;47.966;10.268;2023-04-21T01:02:46;5.20;99.90
6788;DHT22;3431;47.966;10.268;2023-04-21T01:03:09;5.20;99.90
6788;DHT22;3431;47.966;10.268;2023-04-21T01:03:30;5.20;99.90
6788;DHT22;3431;47.966;10.268;2023-04-21T01:03:52;5.20;99.90
6788;DHT22;3431;47.966;10.268;2023-04-21T01:04:15;5.20;99.90
6788;DHT22;3431;47.966;10.268;2023-04-21T01:04:37;5.20;99.90
6788;DHT22;3431;47.966;10.268;2023-04-21T01:05:00;5.20;99.90
6788;DHT22;3431;47.966;10.268;2023-04-21T01:05:22;5.10;99.90
6788;DHT22;3431;47.966;10.268;2023-04-21T01:05:44;5.10;99.90
6788;DHT22;3431;47.966;10.268;2023-04-21T01:06:07;5.10;99.90
6788;DHT22;3431;47.966;10.268;2023-04-21T01:06:32;5.10;99.90
6788;DHT22;3431;47.966;10.268;2023-04-21T01:06:54;5.10;99.90
6788;DHT22;3431;47.966;10.268;2023-04-21T01:07:18;5.10;99.90
6788;DHT22;3431;47.966;10.268;2023-04-21T01:07:39;5.10;99.90
6788;DHT22;3431;47.966;10.268;2023-04-21T01:08:01;5.10;99.90
6788;DHT22;3431;47.966;10.268;2023-04-21T01:08:23;5.10;99.90
6788;DHT22;3431;47.966;10.268;2023-04-21T01:08:45;5.00;99.90
6788;DHT22;3431;47.966;10.268;2023-04-21T01:09:10;5.10;99.90
6788;DHT22;3431;47.966;10.268;2023-04-21T01:09:33;5.00;99.90
6788;DHT22;3431;47.966;10.268;2023-04-21T01:09:54;5.00;99.90
6788;DHT22;3431;47.966;10.268;2023-04-21T01:10:17;5.10;99.90
6788;DHT22;3431;47.966;10.268;2023-04-21T01:10:40;5.00;99.90
6788;DHT22;3431;47.966;10.268;2023-04-21T01:11:08;5.10;99.90
6788;DHT22;3431;47.966;10.268;2023-04-21T01:11:31;5.00;99.90
6788;DHT22;3431;47.966;10.268;2023-04-21T01:12:02;5.00;99.90
6788;DHT22;3431;47.966;10.268;2023-04-21T01:12:24;5.00;99.90
6788;DHT22;3431;47.966;10.268;2023-04-21T01:12:47;5.00;99.90
6788;DHT22;3431;47.966;10.268;2023-04-21T01:13:08;5.00;99.90
6788;DHT22;3431;47.966;10.268;2023-04-21T01:13:30;5.00;99.90
6788;DHT22;3431;47.966;10.268;2023-04-21T01:13:52;5.00;99.90
6788;DHT22;3431;47.966;10.268;2023-04-21T01:14:14;4.90;99.90
6788;DHT22;3431;47.966;10.268;2023-04-21T01:14:37;4.90;99.90
6788;DHT22;3431;47.966;10.268;2023-04-21T01:14:59;4.90;99.90
6788;DHT22;3431;47.966;10.268;2023-04-21T01:15:21;4.90;99.90
6788;DHT22;3431;47.966;10.268;2023-04-21T01:15:43;4.90;99.90
6788;DHT22;3431;47.966;10.268;2023-04-21T01:16:06;4.90;99.90
6788;DHT22;3431;47.966;10.268;2023-04-21T01:16:28;4.90;99.90
6788;DHT22;3431;47.966;10.268;2023-04-21T01:16:49;4.90;99.90
6788;DHT22;3431;47.966;10.268;2023-04-21T01:17:14;4.90;99.90
6788;DHT22;3431;47.966;10.268;2023-04-21T01:17:42;4.90;99.90
6788;DHT22;3431;47.966;10.268;2023-04-21T01:18:03;4.80;99.90
6788;DHT22;3431;47.966;10.268;2023-04-21T01:18:26;4.90;99.90
6788;DHT22;3431;47.966;10.268;2023-04-21T01:18:48;4.90;99.90
6788;DHT22;3431;47.966;10.268;2023-04-21T01:19:09;4.80;99.90
6788;DHT22;3431;47.966;10.268;2023-04-21T01:19:33;4.80;99.90
6788;DHT22;3431;47.966;10.268;2023-04-21T01:19:58;4.80;99.90
6788;DHT22;3431;47.966;10.268;2023-04-21T01:20:23;4.80;99.90
6788;DHT22;3431;47.966;10.268;2023-04-21T01:20:45;4.80;99.90
6788;DHT22;3431;47.966;10.268;2023-04-21T01:21:06;4.80;99.90
6788;DHT22;3431;47.966;10.268;2023-04-21T01:21:35;4.80;99.90
6788;DHT22;3431;47.966;10.268;2023-04-21T01:22:00;4.80;99.90
6788;DHT22;3431;47.966;10.268;2023-04-21T01:22:24;4.80;99.90
6788;DHT22;3431;47.966;10.268;2023-04-21T01:22:47;4.70;99.90
6788;DHT22;3431;47.966;10.268;2023-04-21T01:23:09;4.80;99.90
6788;DHT22;3431;47.966;10.268;2023-04-21T01:23:31;4.80;99.90
6788;DHT22;3431;47.966;10.268;2023-04-21T01:23:54;4.70;99.90
6788;DHT22;3431;47.966;10.268;2023-04-21T01:24:15;4.70;99.90
6788;DHT22;3431;47.966;10.268;2023-04-21T01:24:40;4.70;99.90
6788;DHT22;3431;47.966;10.268;2023-04-21T01:25:02;4.70;99.90
6788;DHT22;3431;47.966;10.268;2023-04-21T01:25:25;4.70;99.90
6788;DHT22;3431;47.966;10.268;2023-04-21T01:25:49;4.70;99.90
6788;DHT22;3431;47.966;10.268;2023-04-21T01:26:11;4.70;99.90
6788;DHT22;3431;47.966;10.268;2023-04-21T01:26:32;4.70;99.90
6788;DHT22;3431;47.966;10.268;2023-04-21T01:26:56;4.70;99.90
6788;DHT22;3431;47.966;10.268;2023-04-21T01:27:19;4.70;99.90
6788;DHT22;3431;47.966;10.268;2023-04-21T01:27:42;4.70;99.90
6788;DHT22;3431;47.966;10.268;2023-04-21T01:28:03;4.70;99.90
6788;DHT22;3431;47.966;10.268;2023-04-21T01:28:26;4.70;99.90
6788;DHT22;3431;47.966;10.268;2023-04-21T01:28:48;4.70;99.90
6788;DHT22;3431;47.966;10.268;2023-04-21T01:29:09;4.70;99.90
6788;DHT22;3431;47.966;10.268;2023-04-21T01:29:32;4.70;99.90
6788;DHT22;3431;47.966;10.268;2023-04-21T01:29:55;3.30;99.90
6788;DHT22;3431;47.966;10.268;2023-04-21T01:30:16;4.70;99.90
6788;DHT22;3431;47.966;10.268;2023-04-21T01:30:38;4.70;99.90
6788;DHT22;3431;47.966;10.268;2023-04-21T01:30:59;4.70;99.90
6788;DHT22;3431;47.966;10.268;2023-04-21T01:31:21;4.70;99.90
6788;DHT22;3431;47.966;10.268;2023-04-21T01:31:44;4.70;99.90
6788;DHT22;3431;47.966;10.268;2023-04-21T01:32:10;4.70;99.90
6788;DHT22;3431;47.966;10.268;2023-04-21T01:32:32;4.60;99.90
6788;DHT22;3431;47.966;10.268;2023-04-21T01:32:54;4.70;99.90
6788;DHT22;3431;47.966;10.268;2023-04-21T01:33:21;4.70;99.90
6788;DHT22;3431;47.966;10.268;2023-04-21T01:33:42;4.70;99.90
6788;DHT22;3431;47.966;10.268;2023-04-21T01:34:04;4.70;99.90
6788;DHT22;3431;47.966;10.268;2023-04-21T01:34:26;4.70;99.90
6788;DHT22;3431;47.966;10.268;2023-04-21T01:34:48;4.70;99.90
6788;DHT22;3431;47.966;10.268;2023-04-21T01:35:11;4.60;99.90
6788;DHT22;3431;47.966;10.268;2023-04-21T01:35:33;4.70;99.90
6788;DHT22;3431;47.966;10.268;2023-04-21T01:35:55;4.60;99.90
6788;DHT22;3431;47.966;10.268;2023-04-21T01:36:16;4.70;99.90
6788;DHT22;3431;47.966;10.268;2023-04-21T01:36:40;4.70;99.90
6788;DHT22;3431;47.966;10.268;2023-04-21T01:37:02;4.70;99.90
6788;DHT22;3431;47.966;10.268;2023-04-21T01:37:26;4.70;99.90
6788;DHT22;3431;47.966;10.268;2023-04-21T01:37:47;4.70;99.90
6788;DHT22;3431;47.966;10.268;2023-04-21T01:38:10;4.70;99.90
6788;DHT22;3431;47.966;10.268;2023-04-21T01:38:32;4.70;99.90
6788;DHT22;3431;47.966;10.268;2023-04-21T01:38:53;4.70;99.90
6788;DHT22;3431;47.966;10.268;2023-04-21T01:39:17;4.70;99.90
6788;DHT22;3431;47.966;10.268;2023-04-21T01:39:39;4.70;99.90
6788;DHT22;3431;47.966;10.268;2023-04-21T01:40:04;4.70;99.90
6788;DHT22;3431;47.966;10.268;2023-04-21T01:40:28;4.70;99.90
6788;DHT22;3431;47.966;10.268;2023-04-21T01:40:51;4.70;99.90
6788;DHT22;3431;47.966;10.268;2023-04-21T01:41:13;4.70;99.90
6788;DHT22;3431;47.966;10.268;2023-04-21T01:41:36;4.70;99.90
6788;DHT22;3431;47.966;10.268;2023-04-21T01:41:57;4.70;99.90
6788;DHT22;3431;47.966;10.268;2023-04-21T01:42:20;4.70;99.90
6788;DHT22;3431;47.966;10.268;2023-04-21T01:42:42;4.70;99.90
6788;DHT22;3431;47.966;10.268;2023-04-21T01:43:04;4.70;99.90
6788;DHT22;3431;47.966;10.268;2023-04-21T01:43:28;4.70;99.90
6788;DHT22;3431;47.966;10.268;2023-04-21T01:43:51;4.70;99.90
6788;DHT22;3431;47.966;10.268;2023-04-21T01:44:12;4.70;99.90
6788;DHT22;3431;47.966;10.268;2023-04-21T01:44:34;4.70;99.90
6788;DHT22;3431;47.966;10.268;2023-04-21T01:44:57;4.70;99.90
6788;DHT22;3431;47.966;10.268;2023-04-21T01:45:19;4.70;99.90
6788;DHT22;3431;47.966;10.268;2023-04-21T01:45:40;4.70;99.90
6788;DHT22;3431;47.966;10.268;2023-04-21T01:46:02;4.70;99.90
6788;DHT22;3431;47.966;10.268;2023-04-21T01:46:25;4.70;99.90
6788;DHT22;3431;47.966;10.268;2023-04-21T01:46:46;4.70;99.90
6788;DHT22;3431;47.966;10.268;2023-04-21T01:47:08;4.70;99.90
6788;DHT22;3431;47.966;10.268;2023-04-21T01:47:30;4.70;99.90
6788;DHT22;3431;47.966;10.268;2023-04-21T01:47:51;4.70;99.90
6788;DHT22;3431;47.966;10.268;2023-04-21T01:48:14;4.70;99.90
6788;DHT22;3431;47.966;10.268;2023-04-21T01:48:35;4.70;99.90
6788;DHT22;3431;47.966;10.268;2023-04-21T01:48:57;4.70;99.90
6788;DHT22;3431;47.966;10.268;2023-04-21T01:49:19;4.70;99.90
6788;DHT22;3431;47.966;10.268;2023-04-21T01:49:43;4.70;99.90
6788;DHT22;3431;47.966;10.268;2023-04-21T01:50:05;4.70;99.90
6788;DHT22;3431;47.966;10.268;2023-04-21T01:50:26;4.70;99.90
6788;DHT22;3431;47.966;10.268;2023-04-21T01:50:48;4.70;99.90
6788;DHT22;3431;47.966;10.268;2023-04-21T01:51:10;4.60;99.90
6788;DHT22;3431;47.966;10.268;2023-04-21T01:51:32;4.70;99.90
6788;DHT22;3431;47.966;10.268;2023-04-21T01:51:55;4.70;99.90
6788;DHT22;3431;47.966;10.268;2023-04-21T01:52:17;4.70;99.90
6788;DHT22;3431;47.966;10.268;2023-04-21T01:52:40;4.70;99.90
6788;DHT22;3431;47.966;10.268;2023-04-21T01:53:03;4.60;99.90
6788;DHT22;3431;47.966;10.268;2023-04-21T01:53:24;4.60;99.90
6788;DHT22;3431;47.966;10.268;2023-04-21T01:53:47;4.60;99.90
6788;DHT22;3431;47.966;10.268;2023-04-21T01:54:08;4.70;99.90
6788;DHT22;3431;47.966;10.268;2023-04-21T01:54:31;4.60;99.90
6788;DHT22;3431;47.966;10.268;2023-04-21T01:54:53;4.60;99.90
6788;DHT22;3431;47.966;10.268;2023-04-21T01:55:15;4.60;99.90
6788;DHT22;3431;47.966;10.268;2023-04-21T01:55:36;4.60;99.90
6788;DHT22;3431;47.966;10.268;2023-04-21T01:56:02;4.60;99.90
6788;DHT22;3431;47.966;10.268;2023-04-21T01:56:25;4.60;99.90
6788;DHT22;3431;47.966;10.268;2023-04-21T01:56:47;4.60;99.90
6788;DHT22;3431;47.966;10.268;2023-04-21T01:57:09;4.60;99.90
6788;DHT22;3431;47.966;10.268;2023-04-21T01:57:31;4.60;99.90
6788;DHT22;3431;47.966;10.268;2023-04-21T01:57:54;4.60;99.90
6788;DHT22;3431;47.966;10.268;2023-04-21T01:58:17;4.60;99.90
6788;DHT22;3431;47.966;10.268;2023-04-21T01:58:39;4.60;99.90
6788;DHT22;3431;47.966;10.268;2023-04-21T01:59:01;4.60;99.90
6788;DHT22;3431;47.966;10.268;2023-04-21T01:59:23;4.70;99.90
6788;DHT22;3431;47.966;10.268;2023-04-21T01:59:46;4.70;99.90
6788;DHT22;3431;47.966;10.268;2023-04-21T02:00:09;4.70;99.90
6788;DHT22;3431;47.966;10.268;2023-04-21T02:00:37;4.70;99.90
6788;DHT22;3431;47.966;10.268;2023-04-21T02:00:59;4.60;99.90
6788;DHT22;3431;47.966;10.268;2023-04-21T02:01:22;4.60;99.90
6788;DHT22;3431;47.966;10.268;2023-04-21T02:01:43;4.70;99.90
6788;DHT22;3431;47.966;10.268;2023-04-21T02:02:05;4.70;99.90
6788;DHT22;3431;47.966;10.268;2023-04-21T02:02:28;4.70;99.90
6788;DHT22;3431;47.966;10.268;2023-04-21T02:02:50;4.70;99.90
6788;DHT22;3431;47.966;10.268;2023-04-21T02:03:12;4.70;99.90
6788;DHT22;3431;47.966;10.268;2023-04-21T02:03:34;4.70;99.90
6788;DHT22;3431;47.966;10.268;2023-04-21T02:03:56;4.70;99.90
6788;DHT22;3431;47.966;10.268;2023-04-21T02:04:18;4.70;99.90
6788;DHT22;3431;47.966;10.268;2023-04-21T02:04:40;4.70;99.90
6788;DHT22;3431;47.966;10.268;2023-04-21T02:05:02;4.60;99.90
6788;DHT22;3431;47.966;10.268;2023-04-21T02:05:23;4.70;99.90
6788;DHT22;3431;47.966;10.268;2023-04-21T02:05:46;4.70;99.90
6788;DHT22;3431;47.966;10.268;2023-04-21T02:06:07;4.70;99.90
6788;DHT22;3431;47.966;10.268;2023-04-21T02:06:29;4.60;99.90
6788;DHT22;3431;47.966;10.268;2023-04-21T02:06:51;4.60;99.90
6788;DHT22;3431;47.966;10.268;2023-04-21T02:07:14;4.60;99.90
6788;DHT22;3431;47.966;10.268;2023-04-21T02:07:37;4.60;99.90
6788;DHT22;3431;47.966;10.268;2023-04-21T02:07:58;4.60;99.90
6788;DHT22;3431;47.966;10.268;2023-04-21T02:08:20;4.60;99.90
6788;DHT22;3431;47.966;10.268;2023-04-21T02:08:41;4.60;99.90
6788;DHT22;3431;47.966;10.268;2023-04-21T02:09:03;4.70;99.90
6788;DHT22;3431;47.966;10.268;2023-04-21T02:09:26;4.60;99.90
6788;DHT22;3431;47.966;10.268;2023-04-21T02:09:48;4.60;99.90
6788;DHT22;3431;47.966;10.268;2023-04-21T02:10:09;4.70;99.90
6788;DHT22;3431;47.966;10.268;2023-04-21T02:10:31;4.70;99.90
6788;DHT22;3431;47.966;10.268;2023-04-21T02:10:54;4.70;99.90
6788;DHT22;3431;47.966;10.268;2023-04-21T02:11:15;4.70;99.90
6788;DHT22;3431;47.966;10.268;2023-04-21T02:11:37;4.70;99.90
6788;DHT22;3431;47.966;10.268;2023-04-21T02:11:58;4.70;99.90
6788;DHT22;3431;47.966;10.268;2023-04-21T02:12:20;4.70;99.90
6788;DHT22;3431;47.966;10.268;2023-04-21T02:12:43;4.70;99.90
6788;DHT22;3431;47.966;10.268;2023-04-21T02:13:04;4.70;99.90
6788;DHT22;3431;47.966;10.268;2023-04-21T02:13:26;4.70;99.90
6788;DHT22;3431;47.966;10.268;2023-04-21T02:13:47;4.70;99.90
6788;DHT22;3431;47.966;10.268;2023-04-21T02:14:09;4.60;99.90
6788;DHT22;3431;47.966;10.268;2023-04-21T02:14:32;4.80;99.90
6788;DHT22;3431;47.966;10.268;2023-04-21T02:14:53;4.80;99.90
6788;DHT22;3431;47.966;10.268;2023-04-21T02:15:15;4.70;99.90
6788;DHT22;3431;47.966;10.268;2023-04-21T02:15:37;4.70;99.90
6788;DHT22;3431;47.966;10.268;2023-04-21T02:15:59;4.70;99.90
6788;DHT22;3431;47.966;10.268;2023-04-21T02:16:22;4.70;99.90
6788;DHT22;3431;47.966;10.268;2023-04-21T02:16:46;4.70;99.90
6788;DHT22;3431;47.966;10.268;2023-04-21T02:17:07;4.70;99.90
6788;DHT22;3431;47.966;10.268;2023-04-21T02:17:29;4.70;99.90
6788;DHT22;3431;47.966;10.268;2023-04-21T02:17:51;4.70;99.90
6788;DHT22;3431;47.966;10.268;2023-04-21T02:18:13;4.60;99.90
6788;DHT22;3431;47.966;10.268;2023-04-21T02:18:36;4.60;99.90
6788;DHT22;3431;47.966;10.268;2023-04-21T02:19:00;4.60;99.90
6788;DHT22;3431;47.966;10.268;2023-04-21T02:19:22;4.60;99.90
6788;DHT22;3431;47.966;10.268;2023-04-21T02:19:44;4.60;99.90
6788;DHT22;3431;47.966;10.268;2023-04-21T02:20:09;4.50;99.90
6788;DHT22;3431;47.966;10.268;2023-04-21T02:20:33;4.50;99.90
6788;DHT22;3431;47.966;10.268;2023-04-21T02:20:54;4.50;99.90
6788;DHT22;3431;47.966;10.268;2023-04-21T02:21:17;4.50;99.90
6788;DHT22;3431;47.966;10.268;2023-04-21T02:21:38;4.50;99.90
6788;DHT22;3431;47.966;10.268;2023-04-21T02:22:00;4.50;99.90
6788;DHT22;3431;47.966;10.268;2023-04-21T02:22:23;4.50;99.90
6788;DHT22;3431;47.966;10.268;2023-04-21T02:22:44;4.50;99.90
6788;DHT22;3431;47.966;10.268;2023-04-21T02:23:07;4.50;99.90
6788;DHT22;3431;47.966;10.268;2023-04-21T02:23:28;4.50;99.90
6788;DHT22;3431;47.966;10.268;2023-04-21T02:23:50;4.50;99.90
6788;DHT22;3431;47.966;10.268;2023-04-21T02:24:12;4.50;99.90
6788;DHT22;3431;47.966;10.268;2023-04-21T02:24:35;4.50;99.90
6788;DHT22;3431;47.966;10.268;2023-04-21T02:24:56;4.50;99.90
6788;DHT22;3431;47.966;10.268;2023-04-21T02:25:18;4.50;99.90
6788;DHT22;3431;47.966;10.268;2023-04-21T02:25:40;4.60;99.90
6788;DHT22;3431;47.966;10.268;2023-04-21T02:26:01;4.50;99.90
6788;DHT22;3431;47.966;10.268;2023-04-21T02:26:26;4.50;99.90
6788;DHT22;3431;47.966;10.268;2023-04-21T02:26:48;4.50;99.90